createdAt,value
2017-08-08T00:00:24.467Z,14.40
2017-08-08T00:01:19.791Z,14.38
2017-08-08T00:02:13.532Z,14.40
2017-08-08T00:03:13.576Z,14.38
2017-08-08T00:04:08.535Z,14.35
2017-08-08T00:05:08.728Z,14.31
2017-08-08T00:06:02.719Z,14.31
2017-08-08T00:07:02.623Z,14.39
2017-08-08T00:07:57.700Z,14.45
2017-08-08T00:08:57.809Z,14.47
2017-08-08T00:09:57.779Z,14.50
2017-08-08T00:10:58.024Z,14.47
2017-08-08T00:11:52.054Z,14.47
2017-08-08T00:12:53.107Z,14.50
2017-08-08T00:13:53.946Z,14.59
2017-08-08T00:14:49.124Z,14.62
2017-08-08T00:15:43.016Z,14.68
2017-08-08T00:16:43.126Z,14.70
2017-08-08T00:17:38.159Z,14.68
2017-08-08T00:18:38.069Z,14.75
2017-08-08T00:19:32.157Z,14.74
2017-08-08T00:20:32.179Z,14.90
2017-08-08T00:21:27.245Z,14.90
2017-08-08T00:22:22.286Z,14.90
2017-08-08T00:23:22.371Z,14.88
2017-08-08T00:24:17.322Z,14.88
2017-08-08T00:25:12.333Z,14.86
2017-08-08T00:26:12.356Z,14.80
2017-08-08T00:27:07.413Z,14.74
2017-08-08T00:28:02.475Z,14.70
2017-08-08T00:29:03.709Z,14.60
2017-08-08T00:30:03.514Z,14.59
2017-08-08T00:31:03.548Z,14.56
2017-08-08T00:31:58.651Z,14.60
2017-08-08T00:32:52.644Z,14.60
2017-08-08T00:33:52.600Z,14.54
2017-08-08T00:34:47.924Z,14.54
2017-08-08T00:35:47.962Z,14.56
2017-08-08T00:36:42.052Z,14.55
2017-08-08T00:37:41.825Z,14.52
2017-08-08T00:38:36.840Z,14.49
2017-08-08T00:39:32.147Z,14.58
2017-08-08T00:40:32.026Z,14.62
2017-08-08T00:41:27.107Z,14.61
2017-08-08T00:42:21.994Z,14.60
2017-08-08T00:43:22.997Z,14.55
2017-08-08T00:44:24.106Z,14.56
2017-08-08T00:45:19.098Z,14.50
2017-08-08T00:46:08.125Z,14.46
2017-08-08T00:46:56.274Z,14.44
2017-08-08T00:47:44.259Z,14.41
2017-08-08T00:48:32.255Z,14.42
2017-08-08T00:49:26.277Z,14.39
2017-08-08T00:50:15.362Z,14.44
2017-08-08T00:51:10.392Z,14.47
2017-08-08T00:51:59.451Z,14.46
2017-08-08T00:52:53.481Z,14.43
2017-08-08T00:53:42.505Z,14.46
2017-08-08T00:54:30.612Z,14.45
2017-08-08T00:55:30.533Z,14.42
2017-08-08T00:56:30.730Z,14.46
2017-08-08T00:57:24.615Z,14.48
2017-08-08T00:58:25.881Z,14.56
2017-08-08T00:59:26.903Z,14.52
2017-08-08T01:00:21.750Z,14.51
2017-08-08T01:01:16.036Z,14.64
2017-08-08T01:02:15.795Z,14.68
2017-08-08T01:03:10.786Z,14.64
2017-08-08T01:04:11.115Z,14.62
2017-08-08T01:05:04.939Z,14.58
2017-08-08T01:06:05.081Z,14.51
2017-08-08T01:07:00.076Z,14.54
2017-08-08T01:07:55.167Z,14.52
2017-08-08T01:08:55.065Z,14.55
2017-08-08T01:09:50.139Z,14.58
2017-08-08T01:10:45.175Z,14.60
2017-08-08T01:11:45.185Z,14.56
2017-08-08T01:12:40.272Z,14.49
2017-08-08T01:13:35.572Z,14.48
2017-08-08T01:14:36.519Z,14.47
2017-08-08T01:15:36.312Z,14.46
2017-08-08T01:16:36.663Z,14.52
2017-08-08T01:17:31.480Z,14.64
2017-08-08T01:18:25.468Z,14.70
2017-08-08T01:19:25.526Z,14.64
2017-08-08T01:20:20.622Z,14.62
2017-08-08T01:21:20.811Z,14.58
2017-08-08T01:22:14.846Z,14.62
2017-08-08T01:23:14.763Z,14.59
2017-08-08T01:24:09.646Z,14.54
2017-08-08T01:25:09.749Z,14.50
2017-08-08T01:26:10.015Z,14.46
2017-08-08T01:27:09.891Z,14.44
2017-08-08T01:27:58.876Z,14.42
2017-08-08T01:28:46.813Z,14.36
2017-08-08T01:29:41.857Z,14.32
2017-08-08T01:30:43.941Z,14.20
2017-08-08T01:31:31.206Z,14.12
2017-08-08T01:32:19.983Z,14.05
2017-08-08T01:33:08.020Z,13.94
2017-08-08T01:33:56.294Z,13.86
2017-08-08T01:34:45.145Z,13.80
2017-08-08T01:35:33.244Z,13.79
2017-08-08T01:36:21.439Z,13.77
2017-08-08T01:37:15.267Z,13.76
2017-08-08T01:38:03.328Z,13.70
2017-08-08T01:39:04.603Z,13.58
2017-08-08T01:40:04.364Z,13.49
2017-08-08T01:40:52.524Z,13.43
2017-08-08T01:41:40.755Z,13.36
2017-08-08T01:42:28.527Z,13.29
2017-08-08T01:43:29.640Z,13.26
2017-08-08T01:44:18.667Z,13.17
2017-08-08T01:45:18.750Z,13.14
2017-08-08T01:46:19.939Z,13.11
2017-08-08T01:47:13.658Z,13.12
2017-08-08T01:48:01.957Z,13.13
2017-08-08T01:48:55.945Z,13.13
2017-08-08T01:49:44.872Z,13.08
2017-08-08T01:50:39.837Z,13.03
2017-08-08T01:51:35.068Z,12.99
2017-08-08T01:52:23.964Z,13.00
2017-08-08T01:53:19.041Z,12.98
2017-08-08T01:54:12.988Z,12.94
2017-08-08T01:55:01.122Z,12.89
2017-08-08T01:55:55.379Z,12.90
2017-08-08T01:56:49.104Z,12.86
2017-08-08T01:57:44.159Z,12.85
2017-08-08T01:58:33.156Z,12.85
2017-08-08T01:59:27.239Z,12.89
2017-08-08T02:00:16.266Z,12.86
2017-08-08T02:01:04.352Z,12.80
2017-08-08T02:01:53.338Z,12.76
2017-08-08T02:02:47.387Z,12.85
2017-08-08T02:03:35.406Z,12.86
2017-08-08T02:04:23.561Z,12.84
2017-08-08T02:05:11.660Z,12.83
2017-08-08T02:06:05.558Z,12.81
2017-08-08T02:06:59.603Z,12.85
2017-08-08T02:07:59.694Z,13.00
2017-08-08T02:08:54.727Z,13.07
2017-08-08T02:09:54.726Z,13.09
2017-08-08T02:10:55.044Z,13.08
2017-08-08T02:12:00.798Z,13.10
2017-08-08T02:13:00.825Z,13.11
2017-08-08T02:14:01.842Z,13.08
2017-08-08T02:14:55.839Z,13.06
2017-08-08T02:15:55.993Z,13.11
2017-08-08T02:16:50.972Z,13.12
2017-08-08T02:17:51.063Z,13.12
2017-08-08T02:18:45.020Z,13.14
2017-08-08T02:19:45.005Z,13.14
2017-08-08T02:20:40.062Z,13.14
2017-08-08T02:21:35.355Z,13.10
2017-08-08T02:22:35.102Z,13.06
2017-08-08T02:23:30.235Z,13.05
2017-08-08T02:24:25.204Z,13.05
2017-08-08T02:25:26.260Z,13.11
2017-08-08T02:26:26.263Z,13.06
2017-08-08T02:27:26.296Z,13.08
2017-08-08T02:28:26.364Z,13.08
2017-08-08T02:29:27.482Z,13.08
2017-08-08T02:30:28.590Z,13.07
2017-08-08T02:31:22.768Z,13.06
2017-08-08T02:32:22.527Z,13.12
2017-08-08T02:33:17.539Z,13.13
2017-08-08T02:34:17.594Z,13.12
2017-08-08T02:35:17.646Z,13.14
2017-08-08T02:36:23.927Z,13.18
2017-08-08T02:37:18.943Z,13.20
2017-08-08T02:38:12.721Z,13.19
2017-08-08T02:39:12.784Z,13.18
2017-08-08T02:40:12.718Z,13.17
2017-08-08T02:41:08.256Z,13.22
2017-08-08T02:42:01.914Z,13.28
2017-08-08T02:43:01.852Z,13.26
2017-08-08T02:43:56.982Z,13.27
2017-08-08T02:44:56.927Z,13.28
2017-08-08T02:45:51.070Z,13.30
2017-08-08T02:46:51.142Z,13.32
2017-08-08T02:47:46.039Z,13.28
2017-08-08T02:48:41.070Z,13.34
2017-08-08T02:49:41.127Z,13.30
2017-08-08T02:50:36.177Z,13.33
2017-08-08T02:51:31.409Z,13.27
2017-08-08T02:52:32.271Z,13.28
2017-08-08T02:53:32.260Z,13.28
2017-08-08T02:54:32.223Z,13.30
2017-08-08T02:55:27.270Z,13.41
2017-08-08T02:56:21.482Z,13.46
2017-08-08T02:57:21.404Z,13.66
2017-08-08T02:58:16.419Z,13.73
2017-08-08T02:59:16.483Z,13.78
2017-08-08T03:00:10.689Z,13.86
2017-08-08T03:01:10.791Z,13.89
2017-08-08T03:02:05.785Z,13.95
2017-08-08T03:03:00.663Z,13.93
2017-08-08T03:04:00.793Z,13.90
2017-08-08T03:04:55.678Z,13.90
2017-08-08T03:05:50.949Z,13.88
2017-08-08T03:06:51.827Z,13.82
2017-08-08T03:07:51.967Z,13.80
2017-08-08T03:08:52.029Z,13.74
2017-08-08T03:09:52.063Z,13.75
2017-08-08T03:10:53.041Z,13.76
2017-08-08T03:11:53.997Z,13.76
2017-08-08T03:12:48.099Z,13.75
2017-08-08T03:13:48.137Z,13.72
2017-08-08T03:14:43.196Z,13.74
2017-08-08T03:15:38.225Z,13.75
2017-08-08T03:16:38.185Z,13.72
2017-08-08T03:17:33.362Z,13.71
2017-08-08T03:18:28.334Z,13.70
2017-08-08T03:19:28.354Z,13.68
2017-08-08T03:20:23.369Z,13.66
2017-08-08T03:21:18.472Z,13.58
2017-08-08T03:22:24.476Z,13.56
2017-08-08T03:23:18.454Z,13.52
2017-08-08T03:24:18.544Z,13.50
2017-08-08T03:25:13.544Z,13.49
2017-08-08T03:26:19.633Z,13.49
2017-08-08T03:27:19.679Z,13.48
2017-08-08T03:28:20.698Z,13.49
2017-08-08T03:29:14.699Z,13.50
2017-08-08T03:30:14.708Z,13.47
2017-08-08T03:31:09.685Z,13.44
2017-08-08T03:32:09.808Z,13.48
2017-08-08T03:33:09.779Z,13.54
2017-08-08T03:34:09.943Z,13.58
2017-08-08T03:35:03.989Z,13.60
2017-08-08T03:36:04.018Z,13.64
2017-08-08T03:36:58.775Z,13.65
2017-08-08T03:37:53.782Z,13.74
2017-08-08T03:38:55.024Z,13.82
2017-08-08T03:39:54.881Z,13.84
2017-08-08T03:40:54.947Z,13.90
2017-08-08T03:41:49.940Z,13.93
2017-08-08T03:42:44.075Z,13.98
2017-08-08T03:43:45.263Z,14.03
2017-08-08T03:44:45.003Z,14.06
2017-08-08T03:45:45.275Z,14.06
2017-08-08T03:46:40.366Z,14.02
2017-08-08T03:47:34.331Z,14.04
2017-08-08T03:48:34.383Z,14.02
2017-08-08T03:49:29.446Z,14.04
2017-08-08T03:50:29.588Z,14.04
2017-08-08T03:51:29.552Z,14.04
2017-08-08T03:52:24.625Z,13.99
2017-08-08T03:53:24.629Z,13.97
2017-08-08T03:54:19.638Z,13.92
2017-08-08T03:55:14.679Z,13.90
2017-08-08T03:56:08.669Z,13.88
2017-08-08T03:56:57.813Z,13.86
2017-08-08T03:57:52.791Z,13.88
2017-08-08T03:58:47.759Z,13.82
2017-08-08T03:59:47.802Z,13.69
2017-08-08T04:00:43.130Z,13.59
2017-08-08T04:01:31.818Z,13.53
2017-08-08T04:02:25.980Z,13.42
2017-08-08T04:03:20.127Z,13.30
2017-08-08T04:04:09.100Z,13.28
2017-08-08T04:04:57.167Z,13.48
2017-08-08T04:05:46.194Z,13.55
2017-08-08T04:06:39.953Z,13.54
2017-08-08T04:07:34.305Z,13.49
2017-08-08T04:08:28.272Z,13.44
2017-08-08T04:09:23.369Z,13.58
2017-08-08T04:10:17.411Z,13.68
2017-08-08T04:11:11.548Z,13.58
2017-08-08T04:11:59.537Z,13.63
2017-08-08T04:12:53.494Z,13.70
2017-08-08T04:13:53.600Z,13.68
2017-08-08T04:14:53.545Z,13.50
2017-08-08T04:15:53.629Z,13.47
2017-08-08T04:16:53.828Z,13.36
2017-08-08T04:17:53.627Z,13.21
2017-08-08T04:18:53.754Z,13.08
2017-08-08T04:19:53.738Z,13.06
2017-08-08T04:20:47.797Z,13.00
2017-08-08T04:21:41.860Z,12.85
2017-08-08T04:22:35.859Z,12.97
2017-08-08T04:23:24.811Z,13.01
2017-08-08T04:24:13.887Z,13.04
2017-08-08T04:25:02.943Z,12.96
2017-08-08T04:26:04.029Z,12.83
2017-08-08T04:26:58.067Z,12.80
2017-08-08T04:27:47.236Z,12.80
2017-08-08T04:28:36.162Z,12.74
2017-08-08T04:29:25.214Z,12.70
2017-08-08T04:30:13.216Z,12.68
2017-08-08T04:31:02.267Z,12.79
2017-08-08T04:31:56.303Z,12.80
2017-08-08T04:32:50.408Z,12.79
2017-08-08T04:33:50.425Z,12.66
2017-08-08T04:34:44.443Z,12.60
2017-08-08T04:35:39.471Z,12.55
2017-08-08T04:36:40.565Z,12.59
2017-08-08T04:37:35.574Z,12.58
2017-08-08T04:38:30.550Z,12.52
2017-08-08T04:39:18.609Z,12.56
2017-08-08T04:40:18.687Z,12.60
2017-08-08T04:41:13.708Z,12.68
2017-08-08T04:42:08.727Z,12.49
2017-08-08T04:43:08.858Z,12.51
2017-08-08T04:44:03.997Z,12.39
2017-08-08T04:44:58.837Z,12.46
2017-08-08T04:45:58.963Z,12.44
2017-08-08T04:46:52.908Z,12.48
2017-08-08T04:47:47.043Z,12.60
2017-08-08T04:48:48.048Z,12.61
2017-08-08T04:49:48.136Z,12.55
2017-08-08T04:50:43.134Z,12.54
2017-08-08T04:51:38.174Z,12.58
2017-08-08T04:52:27.215Z,12.46
2017-08-08T04:53:27.151Z,12.60
2017-08-08T04:54:16.271Z,12.58
2017-08-08T04:55:10.354Z,12.56
2017-08-08T04:56:05.408Z,12.66
2017-08-08T04:56:54.336Z,12.64
2017-08-08T04:57:48.370Z,12.60
2017-08-08T04:58:42.460Z,12.62
2017-08-08T04:59:37.450Z,12.58
2017-08-08T05:00:31.586Z,12.61
2017-08-08T05:01:25.610Z,12.66
2017-08-08T05:02:20.696Z,12.63
2017-08-08T05:03:09.665Z,12.72
2017-08-08T05:04:09.684Z,12.69
2017-08-08T05:05:04.732Z,12.68
2017-08-08T05:06:05.056Z,12.69
2017-08-08T05:07:04.760Z,12.72
2017-08-08T05:08:04.854Z,12.80
2017-08-08T05:09:04.900Z,12.78
2017-08-08T05:10:04.962Z,12.76
2017-08-08T05:11:05.018Z,12.80
2017-08-08T05:12:05.067Z,12.77
2017-08-08T05:12:53.093Z,12.77
2017-08-08T05:13:48.079Z,12.78
2017-08-08T05:14:37.089Z,12.78
2017-08-08T05:15:32.180Z,12.78
2017-08-08T05:16:26.238Z,12.84
2017-08-08T05:17:27.228Z,12.90
2017-08-08T05:18:22.333Z,12.92
2017-08-08T05:19:16.285Z,12.89
2017-08-08T05:20:05.306Z,12.94
2017-08-08T05:20:54.384Z,13.00
2017-08-08T05:21:49.529Z,12.98
2017-08-08T05:22:49.511Z,13.03
2017-08-08T05:23:43.535Z,13.06
2017-08-08T05:24:44.590Z,13.14
2017-08-08T05:25:39.627Z,13.13
2017-08-08T05:26:34.667Z,13.22
2017-08-08T05:27:28.636Z,13.25
2017-08-08T05:28:28.777Z,13.30
2017-08-08T05:29:22.841Z,13.35
2017-08-08T05:30:17.791Z,13.40
2017-08-08T05:31:17.868Z,13.47
2017-08-08T05:32:11.862Z,13.42
2017-08-08T05:33:12.068Z,13.42
2017-08-08T05:34:06.004Z,13.38
2017-08-08T05:35:00.981Z,13.48
2017-08-08T05:36:02.128Z,13.62
2017-08-08T05:36:51.096Z,13.65
2017-08-08T05:37:40.191Z,13.55
2017-08-08T05:38:29.287Z,13.54
2017-08-08T05:39:24.251Z,13.64
2017-08-08T05:40:18.268Z,13.64
2017-08-08T05:41:19.357Z,13.64
2017-08-08T05:42:14.385Z,13.73
2017-08-08T05:43:08.425Z,13.72
2017-08-08T05:43:56.480Z,13.70
2017-08-08T05:44:51.476Z,13.72
2017-08-08T05:45:45.599Z,13.76
2017-08-08T05:46:39.560Z,13.84
2017-08-08T05:47:39.570Z,13.87
2017-08-08T05:48:34.655Z,13.98
2017-08-08T05:49:23.823Z,13.84
2017-08-08T05:50:12.746Z,13.85
2017-08-08T05:51:01.878Z,13.78
2017-08-08T05:52:01.864Z,13.88
2017-08-08T05:52:55.901Z,13.84
2017-08-08T05:53:55.914Z,13.88
2017-08-08T05:54:51.116Z,13.84
2017-08-08T05:55:50.994Z,13.83
2017-08-08T05:56:45.042Z,13.82
2017-08-08T05:57:45.062Z,14.04
2017-08-08T05:58:39.156Z,14.13
2017-08-08T05:59:34.156Z,14.03
2017-08-08T06:00:34.213Z,14.00
2017-08-08T06:01:29.334Z,14.00
2017-08-08T06:02:24.306Z,14.02
2017-08-08T06:03:18.347Z,14.09
2017-08-08T06:04:18.349Z,14.24
2017-08-08T06:05:13.513Z,14.22
2017-08-08T06:06:08.525Z,14.20
2017-08-08T06:07:08.537Z,14.13
2017-08-08T06:08:03.571Z,14.06
2017-08-08T06:08:58.597Z,14.18
2017-08-08T06:09:58.550Z,14.17
2017-08-08T06:10:58.729Z,14.24
2017-08-08T06:11:46.831Z,14.18
2017-08-08T06:12:35.804Z,14.10
2017-08-08T06:13:29.818Z,14.09
2017-08-08T06:14:17.896Z,14.12
2017-08-08T06:15:05.982Z,14.17
2017-08-08T06:16:01.001Z,14.14
2017-08-08T06:16:55.016Z,14.15
2017-08-08T06:17:49.005Z,14.29
2017-08-08T06:18:50.100Z,14.24
2017-08-08T06:19:44.048Z,14.46
2017-08-08T06:20:44.143Z,14.60
2017-08-08T06:21:39.178Z,15.00
2017-08-08T06:22:33.272Z,15.82
2017-08-08T06:23:27.283Z,17.14
2017-08-08T06:24:21.379Z,17.42
2017-08-08T06:25:21.381Z,18.36
2017-08-08T06:26:16.515Z,19.09
2017-08-08T06:27:10.525Z,19.38
2017-08-08T06:28:10.515Z,20.85
2017-08-08T06:28:59.609Z,21.12
2017-08-08T06:29:53.704Z,21.65
2017-08-08T06:30:53.613Z,21.49
2017-08-08T06:31:48.657Z,21.50
2017-08-08T06:32:42.800Z,21.37
2017-08-08T06:33:37.859Z,21.50
2017-08-08T06:34:32.860Z,21.50
2017-08-08T06:35:32.862Z,21.52
2017-08-08T06:36:26.944Z,21.66
2017-08-08T06:37:21.027Z,21.60
2017-08-08T06:38:16.119Z,21.79
2017-08-08T06:39:10.169Z,21.57
2017-08-08T06:40:04.186Z,21.78
2017-08-08T06:40:53.173Z,21.56
2017-08-08T06:41:42.290Z,21.32
2017-08-08T06:42:37.335Z,21.65
2017-08-08T06:43:37.375Z,21.73
2017-08-08T06:44:31.556Z,21.53
2017-08-08T06:45:25.491Z,21.43
2017-08-08T06:46:19.481Z,21.39
2017-08-08T06:47:13.563Z,21.45
2017-08-08T06:48:08.715Z,21.56
2017-08-08T06:49:02.771Z,21.61
2017-08-08T06:49:51.752Z,21.86
2017-08-08T06:50:46.858Z,21.84
2017-08-08T06:51:35.874Z,21.50
2017-08-08T06:52:30.985Z,21.12
2017-08-08T06:53:30.929Z,21.10
2017-08-08T06:54:19.982Z,21.05
2017-08-08T06:55:08.135Z,21.15
2017-08-08T06:56:02.146Z,21.03
2017-08-08T06:56:56.167Z,21.06
2017-08-08T06:57:51.206Z,21.16
2017-08-08T06:58:51.320Z,21.20
2017-08-08T06:59:45.344Z,21.42
2017-08-08T07:00:39.456Z,21.62
2017-08-08T07:01:34.499Z,21.99
2017-08-08T07:02:29.593Z,22.51
2017-08-08T07:03:18.481Z,22.92
2017-08-08T07:04:12.656Z,23.16
2017-08-08T07:05:06.626Z,23.41
2017-08-08T07:06:00.669Z,23.72
2017-08-08T07:06:54.719Z,24.06
2017-08-08T07:07:42.786Z,23.92
2017-08-08T07:08:42.793Z,23.36
2017-08-08T07:09:30.905Z,22.78
2017-08-08T07:10:25.015Z,22.50
2017-08-08T07:11:14.120Z,22.55
2017-08-08T07:12:02.131Z,23.11
2017-08-08T07:13:02.090Z,23.53
2017-08-08T07:13:51.194Z,23.62
2017-08-08T07:14:40.228Z,23.64
2017-08-08T07:15:34.344Z,23.53
2017-08-08T07:16:28.438Z,23.53
2017-08-08T07:17:28.372Z,23.84
2017-08-08T07:18:23.545Z,24.48
2017-08-08T07:19:11.504Z,24.97
2017-08-08T07:19:59.639Z,25.33
2017-08-08T07:20:48.620Z,25.66
2017-08-08T07:21:42.646Z,25.68
2017-08-08T07:22:30.706Z,25.83
2017-08-08T07:23:25.801Z,25.66
2017-08-08T07:24:25.784Z,24.89
2017-08-08T07:25:19.888Z,24.82
2017-08-08T07:26:14.045Z,24.50
2017-08-08T07:27:14.073Z,23.98
2017-08-08T07:28:14.135Z,23.83
2017-08-08T07:29:08.134Z,23.56
2017-08-08T07:30:03.186Z,23.52
2017-08-08T07:30:58.243Z,23.90
2017-08-08T07:31:52.345Z,24.02
2017-08-08T07:32:46.467Z,23.90
2017-08-08T07:33:34.463Z,24.21
2017-08-08T07:34:22.539Z,24.76
2017-08-08T07:35:10.510Z,25.21
2017-08-08T07:36:04.710Z,25.35
2017-08-08T07:36:59.718Z,25.94
2017-08-08T07:38:00.777Z,25.56
2017-08-08T07:38:49.788Z,24.54
2017-08-08T07:39:43.939Z,24.14
2017-08-08T07:40:31.954Z,24.20
2017-08-08T07:41:26.023Z,23.99
2017-08-08T07:42:14.008Z,23.89
2017-08-08T07:43:02.117Z,23.62
2017-08-08T07:43:50.168Z,23.15
2017-08-08T07:44:44.197Z,22.63
2017-08-08T07:45:38.220Z,22.23
2017-08-08T07:46:27.350Z,22.08
2017-08-08T07:47:16.301Z,21.96
2017-08-08T07:48:17.518Z,22.16
2017-08-08T07:49:06.547Z,22.18
2017-08-08T07:50:06.586Z,22.18
2017-08-08T07:51:01.657Z,22.08
2017-08-08T07:52:01.723Z,21.96
2017-08-08T07:52:50.690Z,21.82
2017-08-08T07:53:45.821Z,21.72
2017-08-08T07:54:40.873Z,21.56
2017-08-08T07:55:41.926Z,21.44
2017-08-08T07:56:36.944Z,21.22
2017-08-08T07:57:32.011Z,21.11
2017-08-08T07:58:27.114Z,20.97
2017-08-08T07:59:21.109Z,20.84
2017-08-08T08:00:09.194Z,20.66
2017-08-08T08:01:04.215Z,20.38
2017-08-08T08:01:53.286Z,20.29
2017-08-08T08:02:47.300Z,20.56
2017-08-08T08:03:41.364Z,20.44
2017-08-08T08:04:41.405Z,21.13
2017-08-08T08:05:41.518Z,21.38
2017-08-08T08:06:29.530Z,21.54
2017-08-08T08:07:23.548Z,21.64
2017-08-08T08:08:18.560Z,21.60
2017-08-08T08:09:13.707Z,21.56
2017-08-08T08:10:08.809Z,21.31
2017-08-08T08:11:03.789Z,21.20
2017-08-08T08:11:52.858Z,21.18
2017-08-08T08:12:41.948Z,21.26
2017-08-08T08:13:36.882Z,21.32
2017-08-08T08:14:37.009Z,21.26
2017-08-08T08:15:37.125Z,20.98
2017-08-08T08:16:31.110Z,20.82
2017-08-08T08:17:25.163Z,20.53
2017-08-08T08:18:14.371Z,20.32
2017-08-08T08:19:02.268Z,20.39
2017-08-08T08:20:02.313Z,20.63
2017-08-08T08:20:56.436Z,20.91
2017-08-08T08:21:56.427Z,20.89
2017-08-08T08:22:50.503Z,20.77
2017-08-08T08:23:50.503Z,20.50
2017-08-08T08:24:39.538Z,20.36
2017-08-08T08:25:28.657Z,20.39
2017-08-08T08:26:23.742Z,20.50
2017-08-08T08:27:23.692Z,20.49
2017-08-08T08:28:12.865Z,20.62
2017-08-08T08:29:01.870Z,20.71
2017-08-08T08:30:01.921Z,21.10
2017-08-08T08:31:02.993Z,21.53
2017-08-08T08:32:02.987Z,22.05
2017-08-08T08:32:58.097Z,22.15
2017-08-08T08:33:53.098Z,22.17
2017-08-08T08:34:53.156Z,22.19
2017-08-08T08:35:48.183Z,22.18
2017-08-08T08:36:42.275Z,22.02
2017-08-08T08:37:37.296Z,21.73
2017-08-08T08:38:31.460Z,21.79
2017-08-08T08:39:25.415Z,21.76
2017-08-08T08:40:14.525Z,21.78
2017-08-08T08:41:02.550Z,21.84
2017-08-08T08:41:57.616Z,22.06
2017-08-08T08:42:51.681Z,22.11
2017-08-08T08:43:46.702Z,22.30
2017-08-08T08:44:46.700Z,22.50
2017-08-08T08:45:40.708Z,22.54
2017-08-08T08:46:40.789Z,22.50
2017-08-08T08:47:34.890Z,22.66
2017-08-08T08:48:29.938Z,22.52
2017-08-08T08:49:24.966Z,22.42
2017-08-08T08:50:13.024Z,22.30
2017-08-08T08:51:07.116Z,22.34
2017-08-08T08:52:07.195Z,22.40
2017-08-08T08:52:56.290Z,22.55
2017-08-08T08:53:50.447Z,22.44
2017-08-08T08:54:44.285Z,22.40
2017-08-08T08:55:39.379Z,22.38
2017-08-08T08:56:34.439Z,22.25
2017-08-08T08:57:28.464Z,22.23
2017-08-08T08:58:22.502Z,22.21
2017-08-08T08:59:11.541Z,22.06
2017-08-08T09:00:11.587Z,22.05
2017-08-08T09:01:00.678Z,22.11
2017-08-08T09:01:55.725Z,22.17
2017-08-08T09:02:49.831Z,22.26
2017-08-08T09:03:49.900Z,22.44
2017-08-08T09:04:38.903Z,22.37
2017-08-08T09:05:27.968Z,22.49
2017-08-08T09:06:28.008Z,22.69
2017-08-08T09:07:23.150Z,22.83
2017-08-08T09:08:12.151Z,22.91
2017-08-08T09:09:06.190Z,22.83
2017-08-08T09:09:55.323Z,22.71
2017-08-08T09:10:44.263Z,22.28
2017-08-08T09:11:44.324Z,22.16
2017-08-08T09:12:44.412Z,22.15
2017-08-08T09:13:39.511Z,22.24
2017-08-08T09:14:33.486Z,22.27
2017-08-08T09:15:22.604Z,22.37
2017-08-08T09:16:16.638Z,22.50
2017-08-08T09:17:11.624Z,22.62
2017-08-08T09:18:05.635Z,22.66
2017-08-08T09:19:00.801Z,22.69
2017-08-08T09:20:00.803Z,22.79
2017-08-08T09:20:55.844Z,22.87
2017-08-08T09:21:49.882Z,22.84
2017-08-08T09:22:44.026Z,22.90
2017-08-08T09:23:37.969Z,22.97
2017-08-08T09:24:27.078Z,22.96
2017-08-08T09:25:21.221Z,23.00
2017-08-08T09:26:15.168Z,23.04
2017-08-08T09:27:04.285Z,23.11
2017-08-08T09:27:53.295Z,23.25
2017-08-08T09:28:48.431Z,23.35
2017-08-08T09:29:42.468Z,23.44
2017-08-08T09:30:30.488Z,23.46
2017-08-08T09:31:24.576Z,23.25
2017-08-08T09:32:18.539Z,23.06
2017-08-08T09:33:12.543Z,23.17
2017-08-08T09:34:12.705Z,23.30
2017-08-08T09:35:01.761Z,23.46
2017-08-08T09:35:55.770Z,23.43
2017-08-08T09:36:51.144Z,23.54
2017-08-08T09:37:44.994Z,23.42
2017-08-08T09:38:34.050Z,23.38
2017-08-08T09:39:29.113Z,23.26
2017-08-08T09:40:24.146Z,23.29
2017-08-08T09:41:24.111Z,23.31
2017-08-08T09:42:19.151Z,23.34
2017-08-08T09:43:19.268Z,23.44
2017-08-08T09:44:08.333Z,23.60
2017-08-08T09:45:02.339Z,23.63
2017-08-08T09:45:56.471Z,23.49
2017-08-08T09:46:50.456Z,23.66
2017-08-08T09:47:44.563Z,23.84
2017-08-08T09:48:38.513Z,23.76
2017-08-08T09:49:32.646Z,23.47
2017-08-08T09:50:21.687Z,23.42
2017-08-08T09:51:16.762Z,23.32
2017-08-08T09:52:10.873Z,23.33
2017-08-08T09:53:10.755Z,23.29
2017-08-08T09:53:59.893Z,23.32
2017-08-08T09:54:49.011Z,23.41
2017-08-08T09:55:49.044Z,23.54
2017-08-08T09:56:43.072Z,23.60
2017-08-08T09:57:43.098Z,23.65
2017-08-08T09:58:32.362Z,23.72
2017-08-08T09:59:21.263Z,23.62
2017-08-08T10:00:15.262Z,23.70
2017-08-08T10:01:04.427Z,23.68
2017-08-08T10:01:59.407Z,23.49
2017-08-08T10:02:59.410Z,23.35
2017-08-08T10:03:53.558Z,23.32
2017-08-08T10:04:54.463Z,23.34
2017-08-08T10:05:49.611Z,23.35
2017-08-08T10:06:38.647Z,23.33
2017-08-08T10:07:32.651Z,23.12
2017-08-08T10:08:21.791Z,23.06
2017-08-08T10:09:10.711Z,23.08
2017-08-08T10:10:04.842Z,23.22
2017-08-08T10:10:52.924Z,23.12
2017-08-08T10:11:46.967Z,23.16
2017-08-08T10:12:46.893Z,23.09
2017-08-08T10:13:36.083Z,23.18
2017-08-08T10:14:24.041Z,23.23
2017-08-08T10:15:25.201Z,23.23
2017-08-08T10:16:19.067Z,23.10
2017-08-08T10:17:19.198Z,22.86
2017-08-08T10:18:08.364Z,22.76
2017-08-08T10:19:08.400Z,22.59
2017-08-08T10:20:02.465Z,22.41
2017-08-08T10:20:57.526Z,22.35
2017-08-08T10:21:57.502Z,22.20
2017-08-08T10:22:51.602Z,22.40
2017-08-08T10:23:51.617Z,22.50
2017-08-08T10:24:45.668Z,22.44
2017-08-08T10:25:34.800Z,22.36
2017-08-08T10:26:28.806Z,22.32
2017-08-08T10:27:23.778Z,22.37
2017-08-08T10:28:17.833Z,22.31
2017-08-08T10:29:07.019Z,22.28
2017-08-08T10:30:00.821Z,22.24
2017-08-08T10:30:48.848Z,22.12
2017-08-08T10:31:44.105Z,22.21
2017-08-08T10:32:32.982Z,22.19
2017-08-08T10:33:27.094Z,22.11
2017-08-08T10:34:27.193Z,21.94
2017-08-08T10:35:21.196Z,22.06
2017-08-08T10:36:16.131Z,22.04
2017-08-08T10:37:05.376Z,22.04
2017-08-08T10:38:05.565Z,22.00
2017-08-08T10:39:00.535Z,21.93
2017-08-08T10:39:54.595Z,21.83
2017-08-08T10:40:49.598Z,22.04
2017-08-08T10:41:43.605Z,21.87
2017-08-08T10:42:38.739Z,21.66
2017-08-08T10:43:38.752Z,21.52
2017-08-08T10:44:33.892Z,21.80
2017-08-08T10:45:28.950Z,21.99
2017-08-08T10:46:28.998Z,21.92
2017-08-08T10:47:28.980Z,22.46
2017-08-08T10:48:23.008Z,22.42
2017-08-08T10:49:17.178Z,22.54
2017-08-08T10:50:11.093Z,22.38
2017-08-08T10:51:05.226Z,22.31
2017-08-08T10:51:59.961Z,22.28
2017-08-08T10:52:54.131Z,22.22
2017-08-08T10:53:43.263Z,22.16
2017-08-08T10:54:38.166Z,22.28
2017-08-08T10:55:27.528Z,22.56
2017-08-08T10:56:21.310Z,22.76
2017-08-08T10:57:21.568Z,22.74
2017-08-08T10:58:16.585Z,22.51
2017-08-08T10:59:05.587Z,22.43
2017-08-08T10:59:59.673Z,22.59
2017-08-08T11:00:59.866Z,22.44
2017-08-08T11:01:53.765Z,22.31
2017-08-08T11:02:53.629Z,22.33
2017-08-08T11:03:47.894Z,22.29
2017-08-08T11:04:35.728Z,22.34
2017-08-08T11:05:23.824Z,22.24
2017-08-08T11:06:19.042Z,22.07
2017-08-08T11:07:13.842Z,22.16
2017-08-08T11:08:14.276Z,21.90
2017-08-08T11:09:09.230Z,22.06
2017-08-08T11:09:58.280Z,21.97
2017-08-08T11:10:53.132Z,21.72
2017-08-08T11:11:48.183Z,21.57
2017-08-08T11:12:43.289Z,20.99
2017-08-08T11:13:43.480Z,21.14
2017-08-08T11:14:37.510Z,21.69
2017-08-08T11:15:32.587Z,21.56
2017-08-08T11:16:26.629Z,21.18
2017-08-08T11:17:21.668Z,21.18
2017-08-08T11:18:15.557Z,21.44
2017-08-08T11:19:10.635Z,21.55
2017-08-08T11:20:05.568Z,20.93
2017-08-08T11:21:00.611Z,20.72
2017-08-08T11:21:54.709Z,20.60
2017-08-08T11:22:48.704Z,20.65
2017-08-08T11:23:37.723Z,20.78
2017-08-08T11:24:31.868Z,20.96
2017-08-08T11:25:20.913Z,20.67
2017-08-08T11:26:15.215Z,20.20
2017-08-08T11:27:10.109Z,20.44
2017-08-08T11:28:05.217Z,19.93
2017-08-08T11:28:59.375Z,19.40
2017-08-08T11:29:54.425Z,18.92
2017-08-08T11:30:54.446Z,19.34
2017-08-08T11:31:54.414Z,19.24
2017-08-08T11:32:54.529Z,18.98
2017-08-08T11:33:54.581Z,18.98
2017-08-08T11:34:48.647Z,18.82
2017-08-08T11:35:48.706Z,18.53
2017-08-08T11:36:37.760Z,18.34
2017-08-08T11:37:31.805Z,19.02
2017-08-08T11:38:25.828Z,18.85
2017-08-08T11:39:19.883Z,18.48
2017-08-08T11:40:13.878Z,18.36
2017-08-08T11:41:13.990Z,18.59
2017-08-08T11:42:03.000Z,18.38
2017-08-08T11:42:57.082Z,18.36
2017-08-08T11:43:57.062Z,18.46
2017-08-08T11:44:45.128Z,18.50
2017-08-08T11:45:34.142Z,18.64
2017-08-08T11:46:22.311Z,18.89
2017-08-08T11:47:11.320Z,18.82
2017-08-08T11:48:00.344Z,19.66